sensor_id;sensor_type;location;lat;lon;timestamp;temperature;humidity
16392;DHT22;8305;-33.882;151.134;2022-07-09T00:01:11;12.60;99.90
16392;DHT22;8305;-33.882;151.134;2022-07-09T00:03:41;12.70;99.90
16392;DHT22;8305;-33.882;151.134;2022-07-09T00:06:12;12.70;99.90
16392;DHT22;8305;-33.882;151.134;2022-07-09T00:08:45;12.80;99.90
16392;DHT22;8305;-33.882;151.134;2022-07-09T00:11:16;12.80;99.90
16392;DHT22;8305;-33.882;151.134;2022-07-09T00:13:47;12.90;99.90
16392;DHT22;8305;-33.882;151.134;2022-07-09T00:16:17;13.00;99.90
16392;DHT22;8305;-33.882;151.134;2022-07-09T00:18:48;13.00;99.90
16392;DHT22;8305;-33.882;151.134;2022-07-09T00:21:19;13.10;99.90
16392;DHT22;8305;-33.882;151.134;2022-07-09T00:23:51;13.10;99.90
16392;DHT22;8305;-33.882;151.134;2022-07-09T00:26:22;13.20;99.90
16392;DHT22;8305;-33.882;151.134;2022-07-09T00:28:53;13.20;99.90
16392;DHT22;8305;-33.882;151.134;2022-07-09T00:31:23;13.30;99.90
16392;DHT22;8305;-33.882;151.134;2022-07-09T00:33:55;13.40;99.90
16392;DHT22;8305;-33.882;151.134;2022-07-09T00:36:26;13.50;99.90
16392;DHT22;8305;-33.882;151.134;2022-07-09T00:38:58;13.60;99.90
16392;DHT22;8305;-33.882;151.134;2022-07-09T00:41:29;13.60;99.90
16392;DHT22;8305;-33.882;151.134;2022-07-09T00:44:00;13.70;99.90
16392;DHT22;8305;-33.882;151.134;2022-07-09T00:46:33;13.70;99.90
16392;DHT22;8305;-33.882;151.134;2022-07-09T00:49:03;13.90;99.90
16392;DHT22;8305;-33.882;151.134;2022-07-09T00:51:34;14.00;99.90
16392;DHT22;8305;-33.882;151.134;2022-07-09T00:54:07;14.00;99.90
16392;DHT22;8305;-33.882;151.134;2022-07-09T00:56:37;14.00;99.90
16392;DHT22;8305;-33.882;151.134;2022-07-09T00:59:08;14.10;99.90
16392;DHT22;8305;-33.882;151.134;2022-07-09T01:01:41;14.20;99.90
16392;DHT22;8305;-33.882;151.134;2022-07-09T01:04:11;14.20;99.90
16392;DHT22;8305;-33.882;151.134;2022-07-09T01:06:42;14.30;99.90
16392;DHT22;8305;-33.882;151.134;2022-07-09T01:09:15;14.50;99.90
16392;DHT22;8305;-33.882;151.134;2022-07-09T01:11:47;14.50;99.90
16392;DHT22;8305;-33.882;151.134;2022-07-09T01:14:18;14.60;99.90
16392;DHT22;8305;-33.882;151.134;2022-07-09T01:16:57;14.70;99.90
16392;DHT22;8305;-33.882;151.134;2022-07-09T01:19:29;14.70;99.90
16392;DHT22;8305;-33.882;151.134;2022-07-09T01:22:02;14.80;99.90
16392;DHT22;8305;-33.882;151.134;2022-07-09T01:24:34;14.90;99.90
16392;DHT22;8305;-33.882;151.134;2022-07-09T01:27:05;15.00;99.90
16392;DHT22;8305;-33.882;151.134;2022-07-09T01:29:36;15.10;99.90
16392;DHT22;8305;-33.882;151.134;2022-07-09T01:32:07;15.10;99.90
16392;DHT22;8305;-33.882;151.134;2022-07-09T01:37:10;15.10;99.90
16392;DHT22;8305;-33.882;151.134;2022-07-09T01:39:41;15.20;99.90
16392;DHT22;8305;-33.882;151.134;2022-07-09T01:42:19;15.30;99.90
16392;DHT22;8305;-33.882;151.134;2022-07-09T01:44:50;15.40;99.90
16392;DHT22;8305;-33.882;151.134;2022-07-09T01:47:20;15.50;99.90
16392;DHT22;8305;-33.882;151.134;2022-07-09T01:49:51;15.50;99.90
16392;DHT22;8305;-33.882;151.134;2022-07-09T01:52:24;15.60;99.90
16392;DHT22;8305;-33.882;151.134;2022-07-09T01:54:55;15.60;99.90
16392;DHT22;8305;-33.882;151.134;2022-07-09T01:57:26;15.60;99.90
16392;DHT22;8305;-33.882;151.134;2022-07-09T01:59:57;15.60;99.90
16392;DHT22;8305;-33.882;151.134;2022-07-09T02:02:27;15.70;99.90
16392;DHT22;8305;-33.882;151.134;2022-07-09T02:04:58;15.80;99.90
16392;DHT22;8305;-33.882;151.134;2022-07-09T02:07:30;15.90;99.90
16392;DHT22;8305;-33.882;151.134;2022-07-09T02:10:01;15.90;99.90
16392;DHT22;8305;-33.882;151.134;2022-07-09T02:12:32;16.00;99.90
16392;DHT22;8305;-33.882;151.134;2022-07-09T02:15:03;16.10;99.90
16392;DHT22;8305;-33.882;151.134;2022-07-09T02:17:34;16.10;99.90
16392;DHT22;8305;-33.882;151.134;2022-07-09T02:20:06;16.10;99.90
16392;DHT22;8305;-33.882;151.134;2022-07-09T02:22:38;16.10;99.90
16392;DHT22;8305;-33.882;151.134;2022-07-09T02:25:10;16.20;99.90
16392;DHT22;8305;-33.882;151.134;2022-07-09T02:27:40;16.20;99.90
16392;DHT22;8305;-33.882;151.134;2022-07-09T02:30:11;16.20;99.90
16392;DHT22;8305;-33.882;151.134;2022-07-09T02:32:42;16.20;99.90
16392;DHT22;8305;-33.882;151.134;2022-07-09T02:35:13;16.10;99.90
16392;DHT22;8305;-33.882;151.134;2022-07-09T02:37:45;16.20;99.90
16392;DHT22;8305;-33.882;151.134;2022-07-09T02:40:16;16.30;99.90
16392;DHT22;8305;-33.882;151.134;2022-07-09T02:42:47;16.20;99.90
16392;DHT22;8305;-33.882;151.134;2022-07-09T02:45:17;16.20;99.90
16392;DHT22;8305;-33.882;151.134;2022-07-09T02:47:48;16.20;99.90
16392;DHT22;8305;-33.882;151.134;2022-07-09T02:50:19;16.10;99.90
16392;DHT22;8305;-33.882;151.134;2022-07-09T02:52:51;16.10;99.90
16392;DHT22;8305;-33.882;151.134;2022-07-09T02:55:22;16.10;99.90
16392;DHT22;8305;-33.882;151.134;2022-07-09T02:57:52;16.20;99.90
16392;DHT22;8305;-33.882;151.134;2022-07-09T03:00:23;16.30;99.90
16392;DHT22;8305;-33.882;151.134;2022-07-09T03:02:54;16.30;99.90
16392;DHT22;8305;-33.882;151.134;2022-07-09T03:05:24;16.30;99.90
16392;DHT22;8305;-33.882;151.134;2022-07-09T03:07:58;16.30;99.90
16392;DHT22;8305;-33.882;151.134;2022-07-09T03:10:29;16.30;99.90
16392;DHT22;8305;-33.882;151.134;2022-07-09T03:12:59;16.40;99.90
16392;DHT22;8305;-33.882;151.134;2022-07-09T03:15:30;16.40;99.90
16392;DHT22;8305;-33.882;151.134;2022-07-09T03:18:01;16.40;99.90
16392;DHT22;8305;-33.882;151.134;2022-07-09T03:20:31;16.50;99.90
16392;DHT22;8305;-33.882;151.134;2022-07-09T03:23:05;16.50;99.90
16392;DHT22;8305;-33.882;151.134;2022-07-09T03:25:35;16.60;99.90
16392;DHT22;8305;-33.882;151.134;2022-07-09T03:28:06;16.50;99.90
16392;DHT22;8305;-33.882;151.134;2022-07-09T03:30:37;16.40;99.90
16392;DHT22;8305;-33.882;151.134;2022-07-09T03:33:08;16.40;99.90
16392;DHT22;8305;-33.882;151.134;2022-07-09T03:35:39;16.40;99.90
16392;DHT22;8305;-33.882;151.134;2022-07-09T03:38:11;16.30;99.90
16392;DHT22;8305;-33.882;151.134;2022-07-09T03:40:43;16.40;99.90
16392;DHT22;8305;-33.882;151.134;2022-07-09T03:43:13;16.40;99.90
16392;DHT22;8305;-33.882;151.134;2022-07-09T03:45:44;16.50;99.90
16392;DHT22;8305;-33.882;151.134;2022-07-09T03:48:15;16.70;99.90
16392;DHT22;8305;-33.882;151.134;2022-07-09T03:50:45;16.60;99.90
16392;DHT22;8305;-33.882;151.134;2022-07-09T03:53:18;16.60;99.90
16392;DHT22;8305;-33.882;151.134;2022-07-09T03:55:49;16.60;99.90
16392;DHT22;8305;-33.882;151.134;2022-07-09T03:58:20;16.70;99.90
16392;DHT22;8305;-33.882;151.134;2022-07-09T04:00:51;16.60;99.90
16392;DHT22;8305;-33.882;151.134;2022-07-09T04:03:22;16.70;99.90
16392;DHT22;8305;-33.882;151.134;2022-07-09T04:05:53;16.50;99.90
16392;DHT22;8305;-33.882;151.134;2022-07-09T04:08:25;16.50;99.90
16392;DHT22;8305;-33.882;151.134;2022-07-09T04:10:56;16.50;99.90
16392;DHT22;8305;-33.882;151.134;2022-07-09T04:13:27;16.40;99.90
16392;DHT22;8305;-33.882;151.134;2022-07-09T04:16:00;16.40;99.90
16392;DHT22;8305;-33.882;151.134;2022-07-09T04:18:31;16.40;99.90
16392;DHT22;8305;-33.882;151.134;2022-07-09T04:21:02;16.30;99.90
16392;DHT22;8305;-33.882;151.134;2022-07-09T04:23:35;16.30;99.90
16392;DHT22;8305;-33.882;151.134;2022-07-09T04:26:06;16.40;99.90
16392;DHT22;8305;-33.882;151.134;2022-07-09T04:28:37;16.50;99.90
16392;DHT22;8305;-33.882;151.134;2022-07-09T04:31:08;16.50;99.90
16392;DHT22;8305;-33.882;151.134;2022-07-09T04:33:38;16.40;99.90
16392;DHT22;8305;-33.882;151.134;2022-07-09T04:36:09;16.30;99.90
16392;DHT22;8305;-33.882;151.134;2022-07-09T04:38:42;16.20;99.90
16392;DHT22;8305;-33.882;151.134;2022-07-09T04:41:12;16.40;99.90
16392;DHT22;8305;-33.882;151.134;2022-07-09T04:43:43;16.50;99.90
16392;DHT22;8305;-33.882;151.134;2022-07-09T04:46:14;16.50;99.90
16392;DHT22;8305;-33.882;151.134;2022-07-09T04:48:45;16.50;99.90
16392;DHT22;8305;-33.882;151.134;2022-07-09T04:51:15;16.70;99.90
16392;DHT22;8305;-33.882;151.134;2022-07-09T04:53:48;16.80;99.90
16392;DHT22;8305;-33.882;151.134;2022-07-09T04:56:19;16.80;99.90
16392;DHT22;8305;-33.882;151.134;2022-07-09T04:58:49;16.80;99.90
16392;DHT22;8305;-33.882;151.134;2022-07-09T05:01:23;16.70;99.90
16392;DHT22;8305;-33.882;151.134;2022-07-09T05:03:54;16.50;99.90
16392;DHT22;8305;-33.882;151.134;2022-07-09T05:06:25;16.30;99.90
16392;DHT22;8305;-33.882;151.134;2022-07-09T05:08:57;16.20;99.90
16392;DHT22;8305;-33.882;151.134;2022-07-09T05:11:28;16.00;99.90
16392;DHT22;8305;-33.882;151.134;2022-07-09T05:13:59;15.90;99.90
16392;DHT22;8305;-33.882;151.134;2022-07-09T05:16:29;15.80;99.90
16392;DHT22;8305;-33.882;151.134;2022-07-09T05:19:00;15.70;99.90
16392;DHT22;8305;-33.882;151.134;2022-07-09T05:21:31;15.60;99.90
16392;DHT22;8305;-33.882;151.134;2022-07-09T05:24:03;15.50;99.90
16392;DHT22;8305;-33.882;151.134;2022-07-09T05:26:35;15.40;99.90
16392;DHT22;8305;-33.882;151.134;2022-07-09T05:29:05;15.40;99.90
16392;DHT22;8305;-33.882;151.134;2022-07-09T05:31:36;15.30;99.90
16392;DHT22;8305;-33.882;151.134;2022-07-09T05:34:07;15.20;99.90
16392;DHT22;8305;-33.882;151.134;2022-07-09T05:36:37;15.20;99.90
16392;DHT22;8305;-33.882;151.134;2022-07-09T05:39:10;15.20;99.90
16392;DHT22;8305;-33.882;151.134;2022-07-09T05:41:41;15.20;99.90
16392;DHT22;8305;-33.882;151.134;2022-07-09T05:44:11;15.20;99.90
16392;DHT22;8305;-33.882;151.134;2022-07-09T05:46:42;15.10;99.90
16392;DHT22;8305;-33.882;151.134;2022-07-09T05:49:13;15.10;99.90
16392;DHT22;8305;-33.882;151.134;2022-07-09T05:51:43;15.10;99.90
16392;DHT22;8305;-33.882;151.134;2022-07-09T05:54:16;15.00;99.90
16392;DHT22;8305;-33.882;151.134;2022-07-09T05:56:47;14.90;99.90
16392;DHT22;8305;-33.882;151.134;2022-07-09T05:59:19;14.90;99.90
16392;DHT22;8305;-33.882;151.134;2022-07-09T06:01:50;14.80;99.90
16392;DHT22;8305;-33.882;151.134;2022-07-09T06:04:20;14.80;99.90
16392;DHT22;8305;-33.882;151.134;2022-07-09T06:06:51;14.70;99.90
16392;DHT22;8305;-33.882;151.134;2022-07-09T06:09:24;14.60;99.90
16392;DHT22;8305;-33.882;151.134;2022-07-09T06:11:54;14.60;99.90
16392;DHT22;8305;-33.882;151.134;2022-07-09T06:14:25;14.60;99.90
16392;DHT22;8305;-33.882;151.134;2022-07-09T06:16:56;14.50;99.90
16392;DHT22;8305;-33.882;151.134;2022-07-09T06:19:33;14.50;99.90
16392;DHT22;8305;-33.882;151.134;2022-07-09T06:22:04;14.50;99.90
16392;DHT22;8305;-33.882;151.134;2022-07-09T06:24:37;14.40;99.90
16392;DHT22;8305;-33.882;151.134;2022-07-09T06:27:08;14.30;99.90
16392;DHT22;8305;-33.882;151.134;2022-07-09T06:29:38;14.30;99.90
16392;DHT22;8305;-33.882;151.134;2022-07-09T06:32:09;14.20;99.90
16392;DHT22;8305;-33.882;151.134;2022-07-09T06:34:40;14.20;99.90
16392;DHT22;8305;-33.882;151.134;2022-07-09T06:37:11;14.20;99.90
16392;DHT22;8305;-33.882;151.134;2022-07-09T06:39:43;14.20;99.90
16392;DHT22;8305;-33.882;151.134;2022-07-09T06:42:18;14.20;99.90
16392;DHT22;8305;-33.882;151.134;2022-07-09T06:44:49;14.30;99.90
16392;DHT22;8305;-33.882;151.134;2022-07-09T06:47:19;14.20;99.90
16392;DHT22;8305;-33.882;151.134;2022-07-09T06:49:50;14.20;99.90
16392;DHT22;8305;-33.882;151.134;2022-07-09T06:52:21;14.10;99.90
16392;DHT22;8305;-33.882;151.134;2022-07-09T06:54:53;14.10;99.90
16392;DHT22;8305;-33.882;151.134;2022-07-09T06:57:25;14.00;99.90
16392;DHT22;8305;-33.882;151.134;2022-07-09T06:59:56;13.90;99.90
16392;DHT22;8305;-33.882;151.134;2022-07-09T07:02:27;13.80;99.90
16392;DHT22;8305;-33.882;151.134;2022-07-09T07:04:58;13.80;99.90
16392;DHT22;8305;-33.882;151.134;2022-07-09T07:07:28;13.80;99.90
16392;DHT22;8305;-33.882;151.134;2022-07-09T07:10:01;13.70;99.90
16392;DHT22;8305;-33.882;151.134;2022-07-09T07:12:32;13.60;99.90
16392;DHT22;8305;-33.882;151.134;2022-07-09T07:15:02;13.50;99.90
16392;DHT22;8305;-33.882;151.134;2022-07-09T07:17:33;13.50;99.90
16392;DHT22;8305;-33.882;151.134;2022-07-09T07:20:04;13.40;99.90
16392;DHT22;8305;-33.882;151.134;2022-07-09T07:22:35;13.30;99.90
16392;DHT22;8305;-33.882;151.134;2022-07-09T07:25:08;13.30;99.90
16392;DHT22;8305;-33.882;151.134;2022-07-09T07:27:39;13.20;99.90
16392;DHT22;8305;-33.882;151.134;2022-07-09T07:30:10;13.10;99.90
16392;DHT22;8305;-33.882;151.134;2022-07-09T07:32:41;13.10;99.90
16392;DHT22;8305;-33.882;151.134;2022-07-09T07:35:11;13.00;99.90
16392;DHT22;8305;-33.882;151.134;2022-07-09T07:37:42;13.00;99.90
16392;DHT22;8305;-33.882;151.134;2022-07-09T07:40:15;12.90;99.90
16392;DHT22;8305;-33.882;151.134;2022-07-09T07:42:45;12.90;99.90
16392;DHT22;8305;-33.882;151.134;2022-07-09T07:45:16;12.90;99.90
16392;DHT22;8305;-33.882;151.134;2022-07-09T07:47:47;12.80;99.90
16392;DHT22;8305;-33.882;151.134;2022-07-09T07:50:18;12.80;99.90
16392;DHT22;8305;-33.882;151.134;2022-07-09T07:52:49;12.80;99.90
16392;DHT22;8305;-33.882;151.134;2022-07-09T07:55:21;12.80;99.90
16392;DHT22;8305;-33.882;151.134;2022-07-09T07:57:52;12.70;99.90
16392;DHT22;8305;-33.882;151.134;2022-07-09T08:00:23;12.70;99.90
16392;DHT22;8305;-33.882;151.134;2022-07-09T08:02:53;12.70;99.90
16392;DHT22;8305;-33.882;151.134;2022-07-09T08:05:24;12.60;99.90
16392;DHT22;8305;-33.882;151.134;2022-07-09T08:07:55;12.60;99.90
16392;DHT22;8305;-33.882;151.134;2022-07-09T08:10:28;12.50;99.90
16392;DHT22;8305;-33.882;151.134;2022-07-09T08:12:59;12.60;99.90
16392;DHT22;8305;-33.882;151.134;2022-07-09T08:15:29;12.50;99.90
16392;DHT22;8305;-33.882;151.134;2022-07-09T08:18:00;12.40;99.90
16392;DHT22;8305;-33.882;151.134;2022-07-09T08:20:31;12.40;99.90
16392;DHT22;8305;-33.882;151.134;2022-07-09T08:23:02;12.30;99.90
16392;DHT22;8305;-33.882;151.134;2022-07-09T08:25:35;12.30;99.90
16392;DHT22;8305;-33.882;151.134;2022-07-09T08:28:06;12.20;99.90
16392;DHT22;8305;-33.882;151.134;2022-07-09T08:30:37;12.20;99.90
16392;DHT22;8305;-33.882;151.134;2022-07-09T08:33:07;12.20;99.90
16392;DHT22;8305;-33.882;151.134;2022-07-09T08:35:38;12.10;99.90
16392;DHT22;8305;-33.882;151.134;2022-07-09T08:38:09;12.10;99.90
16392;DHT22;8305;-33.882;151.134;2022-07-09T08:40:42;12.00;99.90
16392;DHT22;8305;-33.882;151.134;2022-07-09T08:43:12;12.00;99.90
16392;DHT22;8305;-33.882;151.134;2022-07-09T08:45:44;12.00;99.90
16392;DHT22;8305;-33.882;151.134;2022-07-09T08:48:15;12.00;99.90
16392;DHT22;8305;-33.882;151.134;2022-07-09T08:50:48;11.90;99.90
16392;DHT22;8305;-33.882;151.134;2022-07-09T08:53:19;11.90;99.90
16392;DHT22;8305;-33.882;151.134;2022-07-09T08:55:51;11.90;99.90
16392;DHT22;8305;-33.882;151.134;2022-07-09T08:58:22;11.80;99.90
16392;DHT22;8305;-33.882;151.134;2022-07-09T09:00:53;11.90;99.90
16392;DHT22;8305;-33.882;151.134;2022-07-09T09:03:25;11.80;99.90
16392;DHT22;8305;-33.882;151.134;2022-07-09T09:06:02;11.80;99.90
16392;DHT22;8305;-33.882;151.134;2022-07-09T09:08:37;11.80;99.90
16392;DHT22;8305;-33.882;151.134;2022-07-09T09:11:13;11.80;99.90
16392;DHT22;8305;-33.882;151.134;2022-07-09T09:13:45;11.70;99.90
16392;DHT22;8305;-33.882;151.134;2022-07-09T09:16:16;11.70;99.90
16392;DHT22;8305;-33.882;151.134;2022-07-09T09:18:48;11.70;99.90
16392;DHT22;8305;-33.882;151.134;2022-07-09T09:21:20;11.70;99.90
16392;DHT22;8305;-33.882;151.134;2022-07-09T09:23:52;11.70;99.90
16392;DHT22;8305;-33.882;151.134;2022-07-09T09:26:26;11.70;99.90
16392;DHT22;8305;-33.882;151.134;2022-07-09T09:28:58;11.70;99.90
16392;DHT22;8305;-33.882;151.134;2022-07-09T09:31:29;11.70;99.90
16392;DHT22;8305;-33.882;151.134;2022-07-09T09:34:12;11.70;99.90
16392;DHT22;8305;-33.882;151.134;2022-07-09T09:36:43;11.70;99.90
16392;DHT22;8305;-33.882;151.134;2022-07-09T09:39:15;11.60;99.90
16392;DHT22;8305;-33.882;151.134;2022-07-09T09:41:49;11.70;99.90
16392;DHT22;8305;-33.882;151.134;2022-07-09T09:44:20;11.70;99.90
16392;DHT22;8305;-33.882;151.134;2022-07-09T09:46:52;11.70;99.90
16392;DHT22;8305;-33.882;151.134;2022-07-09T09:49:23;11.70;99.90
16392;DHT22;8305;-33.882;151.134;2022-07-09T09:52:00;11.70;99.90
16392;DHT22;8305;-33.882;151.134;2022-07-09T09:54:33;11.70;99.90
16392;DHT22;8305;-33.882;151.134;2022-07-09T09:57:07;11.70;99.90
16392;DHT22;8305;-33.882;151.134;2022-07-09T09:59:39;11.70;99.90
16392;DHT22;8305;-33.882;151.134;2022-07-09T10:02:10;11.80;99.90
16392;DHT22;8305;-33.882;151.134;2022-07-09T10:04:42;11.70;99.90
16392;DHT22;8305;-33.882;151.134;2022-07-09T10:07:14;11.60;99.90
16392;DHT22;8305;-33.882;151.134;2022-07-09T10:09:54;11.70;99.90
16392;DHT22;8305;-33.882;151.134;2022-07-09T10:12:30;11.60;99.90
16392;DHT22;8305;-33.882;151.134;2022-07-09T10:15:07;11.50;99.90
16392;DHT22;8305;-33.882;151.134;2022-07-09T10:17:41;11.60;99.90
16392;DHT22;8305;-33.882;151.134;2022-07-09T10:20:11;11.60;99.90
16392;DHT22;8305;-33.882;151.134;2022-07-09T10:22:42;11.60;99.90
16392;DHT22;8305;-33.882;151.134;2022-07-09T10:25:22;11.60;99.90
16392;DHT22;8305;-33.882;151.134;2022-07-09T10:27:55;11.50;99.90
16392;DHT22;8305;-33.882;151.134;2022-07-09T10:30:26;11.50;99.90
16392;DHT22;8305;-33.882;151.134;2022-07-09T10:33:05;11.50;99.90
16392;DHT22;8305;-33.882;151.134;2022-07-09T10:35:42;11.40;99.90
16392;DHT22;8305;-33.882;151.134;2022-07-09T10:38:14;11.40;99.90
16392;DHT22;8305;-33.882;151.134;2022-07-09T10:40:45;11.30;99.90
16392;DHT22;8305;-33.882;151.134;2022-07-09T10:43:18;11.30;99.90
16392;DHT22;8305;-33.882;151.134;2022-07-09T10:45:48;11.20;99.90
16392;DHT22;8305;-33.882;151.134;2022-07-09T10:48:19;11.20;99.90
16392;DHT22;8305;-33.882;151.134;2022-07-09T10:50:50;11.20;99.90
16392;DHT22;8305;-33.882;151.134;2022-07-09T10:53:29;11.10;99.90
16392;DHT22;8305;-33.882;151.134;2022-07-09T10:56:00;11.10;99.90
16392;DHT22;8305;-33.882;151.134;2022-07-09T10:58:33;11.10;99.90
16392;DHT22;8305;-33.882;151.134;2022-07-09T11:01:04;11.00;99.90
16392;DHT22;8305;-33.882;151.134;2022-07-09T11:03:36;11.10;99.90
16392;DHT22;8305;-33.882;151.134;2022-07-09T11:06:09;11.00;99.90
16392;DHT22;8305;-33.882;151.134;2022-07-09T11:08:40;11.00;99.90
16392;DHT22;8305;-33.882;151.134;2022-07-09T11:11:10;11.00;99.90
16392;DHT22;8305;-33.882;151.134;2022-07-09T11:13:43;11.00;99.90
16392;DHT22;8305;-33.882;151.134;2022-07-09T11:16:23;11.00;99.90
16392;DHT22;8305;-33.882;151.134;2022-07-09T11:18:54;11.00;99.90
16392;DHT22;8305;-33.882;151.134;2022-07-09T11:21:25;10.90;99.90
16392;DHT22;8305;-33.882;151.134;2022-07-09T11:23:57;10.90;99.90
16392;DHT22;8305;-33.882;151.134;2022-07-09T11:26:29;10.90;99.90
16392;DHT22;8305;-33.882;151.134;2022-07-09T11:29:01;10.90;99.90
16392;DHT22;8305;-33.882;151.134;2022-07-09T11:31:32;10.90;99.90
16392;DHT22;8305;-33.882;151.134;2022-07-09T11:34:03;10.90;99.90
16392;DHT22;8305;-33.882;151.134;2022-07-09T11:36:43;10.90;99.90
16392;DHT22;8305;-33.882;151.134;2022-07-09T11:39:24;10.90;99.90
16392;DHT22;8305;-33.882;151.134;2022-07-09T11:41:56;11.00;99.90
16392;DHT22;8305;-33.882;151.134;2022-07-09T11:44:30;10.80;99.90
16392;DHT22;8305;-33.882;151.134;2022-07-09T11:47:03;10.80;99.90
16392;DHT22;8305;-33.882;151.134;2022-07-09T11:49:35;10.80;99.90
16392;DHT22;8305;-33.882;151.134;2022-07-09T11:52:17;10.80;99.90
16392;DHT22;8305;-33.882;151.134;2022-07-09T11:54:58;10.70;99.90
16392;DHT22;8305;-33.882;151.134;2022-07-09T11:57:30;10.70;99.90
16392;DHT22;8305;-33.882;151.134;2022-07-09T12:00:04;10.70;99.90
16392;DHT22;8305;-33.882;151.134;2022-07-09T12:02:35;10.70;99.90
16392;DHT22;8305;-33.882;151.134;2022-07-09T12:05:07;10.60;99.90
16392;DHT22;8305;-33.882;151.134;2022-07-09T12:07:38;10.60;99.90
16392;DHT22;8305;-33.882;151.134;2022-07-09T12:10:10;10.60;99.90
16392;DHT22;8305;-33.882;151.134;2022-07-09T12:12:41;10.60;99.90
16392;DHT22;8305;-33.882;151.134;2022-07-09T12:15:13;10.50;99.90
16392;DHT22;8305;-33.882;151.134;2022-07-09T12:17:44;10.50;99.90
16392;DHT22;8305;-33.882;151.134;2022-07-09T12:20:22;10.50;99.90
16392;DHT22;8305;-33.882;151.134;2022-07-09T12:22:53;10.50;99.90
16392;DHT22;8305;-33.882;151.134;2022-07-09T12:25:24;10.50;99.90
16392;DHT22;8305;-33.882;151.134;2022-07-09T12:27:55;10.50;99.90
16392;DHT22;8305;-33.882;151.134;2022-07-09T12:30:27;10.40;99.90
16392;DHT22;8305;-33.882;151.134;2022-07-09T12:32:59;10.40;99.90
16392;DHT22;8305;-33.882;151.134;2022-07-09T12:35:30;10.40;99.90
16392;DHT22;8305;-33.882;151.134;2022-07-09T12:38:01;10.30;99.90
16392;DHT22;8305;-33.882;151.134;2022-07-09T12:40:31;10.40;99.90
16392;DHT22;8305;-33.882;151.134;2022-07-09T12:43:05;10.40;99.90
16392;DHT22;8305;-33.882;151.134;2022-07-09T12:45:38;10.40;99.90
16392;DHT22;8305;-33.882;151.134;2022-07-09T12:48:09;10.40;99.90
16392;DHT22;8305;-33.882;151.134;2022-07-09T12:50:40;10.40;99.90
16392;DHT22;8305;-33.882;151.134;2022-07-09T12:53:10;10.30;99.90
16392;DHT22;8305;-33.882;151.134;2022-07-09T12:55:43;10.30;99.90
16392;DHT22;8305;-33.882;151.134;2022-07-09T12:58:14;10.30;99.90
16392;DHT22;8305;-33.882;151.134;2022-07-09T13:00:47;10.30;99.90
16392;DHT22;8305;-33.882;151.134;2022-07-09T13:03:17;10.30;99.90
16392;DHT22;8305;-33.882;151.134;2022-07-09T13:05:48;10.20;99.90
16392;DHT22;8305;-33.882;151.134;2022-07-09T13:08:20;10.20;99.90
16392;DHT22;8305;-33.882;151.134;2022-07-09T13:10:51;10.10;99.90
16392;DHT22;8305;-33.882;151.134;2022-07-09T13:13:22;10.20;99.90
16392;DHT22;8305;-33.882;151.134;2022-07-09T13:15:54;10.10;99.90
16392;DHT22;8305;-33.882;151.134;2022-07-09T13:18:25;10.10;99.90
16392;DHT22;8305;-33.882;151.134;2022-07-09T13:20:55;10.10;99.90
16392;DHT22;8305;-33.882;151.134;2022-07-09T13:23:26;10.10;99.90
16392;DHT22;8305;-33.882;151.134;2022-07-09T13:25:57;10.00;99.90
16392;DHT22;8305;-33.882;151.134;2022-07-09T13:28:28;10.00;99.90
16392;DHT22;8305;-33.882;151.134;2022-07-09T13:31:00;10.00;99.90
16392;DHT22;8305;-33.882;151.134;2022-07-09T13:33:31;9.90;99.90
16392;DHT22;8305;-33.882;151.134;2022-07-09T13:36:02;9.90;99.90
16392;DHT22;8305;-33.882;151.134;2022-07-09T13:38:33;10.00;99.90
16392;DHT22;8305;-33.882;151.134;2022-07-09T13:41:04;10.00;99.90
16392;DHT22;8305;-33.882;151.134;2022-07-09T13:43:35;9.90;99.90
16392;DHT22;8305;-33.882;151.134;2022-07-09T13:46:07;9.80;99.90
16392;DHT22;8305;-33.882;151.134;2022-07-09T13:48:38;9.80;99.90
16392;DHT22;8305;-33.882;151.134;2022-07-09T13:51:09;9.80;99.90
16392;DHT22;8305;-33.882;151.134;2022-07-09T13:53:39;9.70;99.90
16392;DHT22;8305;-33.882;151.134;2022-07-09T13:56:10;9.70;99.90
16392;DHT22;8305;-33.882;151.134;2022-07-09T13:58:41;9.70;99.90
16392;DHT22;8305;-33.882;151.134;2022-07-09T14:01:13;9.70;99.90
16392;DHT22;8305;-33.882;151.134;2022-07-09T14:03:44;9.60;99.90
16392;DHT22;8305;-33.882;151.134;2022-07-09T14:06:15;9.60;99.90
16392;DHT22;8305;-33.882;151.134;2022-07-09T14:08:45;9.60;99.90
16392;DHT22;8305;-33.882;151.134;2022-07-09T14:11:16;9.50;99.90
16392;DHT22;8305;-33.882;151.134;2022-07-09T14:13:47;9.50;99.90
16392;DHT22;8305;-33.882;151.134;2022-07-09T14:16:22;9.50;99.90
16392;DHT22;8305;-33.882;151.134;2022-07-09T14:18:52;9.50;99.90
16392;DHT22;8305;-33.882;151.134;2022-07-09T14:21:23;9.50;99.90
16392;DHT22;8305;-33.882;151.134;2022-07-09T14:23:55;9.50;99.90
16392;DHT22;8305;-33.882;151.134;2022-07-09T14:26:26;9.40;99.90
16392;DHT22;8305;-33.882;151.134;2022-07-09T14:28:57;9.40;99.90
16392;DHT22;8305;-33.882;151.134;2022-07-09T14:31:29;9.40;99.90
16392;DHT22;8305;-33.882;151.134;2022-07-09T14:34:00;9.40;99.90
16392;DHT22;8305;-33.882;151.134;2022-07-09T14:36:31;9.40;99.90
16392;DHT22;8305;-33.882;151.134;2022-07-09T14:39:01;9.40;99.90
16392;DHT22;8305;-33.882;151.134;2022-07-09T14:41:32;9.40;99.90
16392;DHT22;8305;-33.882;151.134;2022-07-09T14:44:03;9.40;99.90
16392;DHT22;8305;-33.882;151.134;2022-07-09T14:46:36;9.30;99.90
16392;DHT22;8305;-33.882;151.134;2022-07-09T14:49:07;9.40;99.90
16392;DHT22;8305;-33.882;151.134;2022-07-09T14:51:38;9.40;99.90
16392;DHT22;8305;-33.882;151.134;2022-07-09T14:54:10;9.30;99.90
16392;DHT22;8305;-33.882;151.134;2022-07-09T14:56:41;9.40;99.90
16392;DHT22;8305;-33.882;151.134;2022-07-09T14:59:12;9.40;99.90
16392;DHT22;8305;-33.882;151.134;2022-07-09T15:01:46;9.40;99.90
16392;DHT22;8305;-33.882;151.134;2022-07-09T15:04:17;9.40;99.90
16392;DHT22;8305;-33.882;151.134;2022-07-09T15:06:47;9.40;99.90
16392;DHT22;8305;-33.882;151.134;2022-07-09T15:09:18;9.40;99.90
16392;DHT22;8305;-33.882;151.134;2022-07-09T15:11:49;9.40;99.90
16392;DHT22;8305;-33.882;151.134;2022-07-09T15:14:19;9.30;99.90
16392;DHT22;8305;-33.882;151.134;2022-07-09T15:16:52;9.30;99.90
16392;DHT22;8305;-33.882;151.134;2022-07-09T15:19:23;9.30;99.90
16392;DHT22;8305;-33.882;151.134;2022-07-09T15:21:55;9.30;99.90
16392;DHT22;8305;-33.882;151.134;2022-07-09T15:24:25;9.30;99.90
16392;DHT22;8305;-33.882;151.134;2022-07-09T15:26:56;9.30;99.90
16392;DHT22;8305;-33.882;151.134;2022-07-09T15:29:27;9.20;99.90
16392;DHT22;8305;-33.882;151.134;2022-07-09T15:31:59;9.20;99.90